createdAt,value
2022-11-23T14:12:56.967Z,359.00
2022-11-23T14:13:08.002Z,381.00
2022-11-23T14:13:19.978Z,379.00
2022-11-23T14:13:31.958Z,378.00
2022-11-23T14:13:42.978Z,363.00
2022-11-23T14:13:53.922Z,352.00
2022-11-23T14:14:04.961Z,333.00
2022-11-23T14:14:16.022Z,319.00
2022-11-23T14:14:28.004Z,316.00
2022-11-23T14:14:39.977Z,312.00
2022-11-23T14:14:50.966Z,312.00
2022-11-23T14:15:01.992Z,326.00
2022-11-23T14:15:13.992Z,345.00
2022-11-23T14:15:25.936Z,315.00
2022-11-23T14:15:37.006Z,283.00
2022-11-23T14:15:48.976Z,272.00
2022-11-23T14:16:00.053Z,265.00
2022-11-23T14:16:11.060Z,260.00
2022-11-23T14:16:22.966Z,255.00
2022-11-23T14:16:34.057Z,263.00
2022-11-23T14:16:46.084Z,266.00
2022-11-23T14:16:57.002Z,264.00
2022-11-23T14:17:09.477Z,249.00
2022-11-23T14:17:18.990Z,245.00
2022-11-23T14:17:30.001Z,243.00
2022-11-23T14:17:41.015Z,241.00
2022-11-23T14:17:52.936Z,238.00
2022-11-23T14:18:03.942Z,238.00
2022-11-23T14:18:14.964Z,237.00
2022-11-23T14:18:25.981Z,239.00
2022-11-23T14:18:37.002Z,238.00
2022-11-23T14:18:47.920Z,237.00
2022-11-23T14:18:58.933Z,237.00
2022-11-23T14:19:09.964Z,237.00
2022-11-23T14:19:20.973Z,237.00
2022-11-23T14:19:32.004Z,237.00
2022-11-23T14:19:42.921Z,228.00
2022-11-23T14:19:53.925Z,221.00
2022-11-23T14:20:05.161Z,219.00
2022-11-23T14:20:15.964Z,220.00
2022-11-23T14:20:26.979Z,217.00
2022-11-23T14:20:37.991Z,213.00
2022-11-23T14:20:49.009Z,207.00
2022-11-23T14:21:00.943Z,204.00
2022-11-23T14:21:11.965Z,202.00
2022-11-23T14:21:23.005Z,201.00
2022-11-23T14:21:33.921Z,201.00
2022-11-23T14:21:44.933Z,203.00
2022-11-23T14:21:55.951Z,204.00
2022-11-23T14:22:06.969Z,206.00
2022-11-23T14:22:18.954Z,197.00
2022-11-23T14:22:30.009Z,197.00
2022-11-23T14:22:41.956Z,197.00
2022-11-23T14:22:53.004Z,197.00
2022-11-23T14:23:04.966Z,199.00
2022-11-23T14:23:16.017Z,202.00
2022-11-23T14:23:27.980Z,203.00
2022-11-23T14:23:39.001Z,201.00
2022-11-23T14:23:49.924Z,194.00
2022-11-23T14:24:00.943Z,192.00
2022-11-23T14:24:15.764Z,192.00
2022-11-23T14:24:23.000Z,192.00
2022-11-23T14:24:34.146Z,190.00
2022-11-23T14:24:44.935Z,190.00
2022-11-23T14:24:55.949Z,193.00
2022-11-23T14:25:06.969Z,201.00
2022-11-23T14:25:17.993Z,203.00
2022-11-23T14:25:29.013Z,197.00
2022-11-23T14:25:40.941Z,196.00
2022-11-23T14:25:51.942Z,198.00
2022-11-23T14:26:02.956Z,200.00
2022-11-23T14:26:13.973Z,198.00
2022-11-23T14:26:24.996Z,200.00
2022-11-23T14:26:36.948Z,202.00
2022-11-23T14:26:48.963Z,200.00
2022-11-23T14:27:23.789Z,195.00
2022-11-23T14:27:45.303Z,193.00
2022-11-23T14:27:47.642Z,185.00
2022-11-23T14:27:50.396Z,188.00
2022-11-23T14:27:52.695Z,191.00
2022-11-23T14:27:55.919Z,183.00
2022-11-23T14:28:06.963Z,179.00
2022-11-23T14:28:17.986Z,183.00
2022-11-23T14:28:29.017Z,176.00
2022-11-23T14:28:40.942Z,171.00
2022-11-23T14:28:51.967Z,169.00
2022-11-23T14:29:02.977Z,169.00
2022-11-23T14:29:14.000Z,169.00
2022-11-23T14:29:25.012Z,169.00
2022-11-23T14:29:36.936Z,168.00
2022-11-23T14:29:48.943Z,166.00
2022-11-23T14:29:59.958Z,167.00
2022-11-23T14:30:10.972Z,166.00
2022-11-23T14:30:21.989Z,168.00
2022-11-23T14:30:33.004Z,168.00
2022-11-23T14:30:44.946Z,168.00
2022-11-23T14:30:55.967Z,167.00
2022-11-23T14:31:06.979Z,170.00
2022-11-23T14:31:18.050Z,170.00
2022-11-23T14:31:30.014Z,171.00
2022-11-23T14:31:42.027Z,173.00
2022-11-23T14:31:54.041Z,173.00
2022-11-23T14:32:05.034Z,176.00
2022-11-23T14:32:16.973Z,182.00
2022-11-23T14:32:27.993Z,182.00
2022-11-23T14:32:39.000Z,178.00
2022-11-23T14:32:50.934Z,179.00
2022-11-23T14:33:04.074Z,182.00
2022-11-23T14:33:12.991Z,182.00
2022-11-23T14:33:24.951Z,182.00
2022-11-23T14:33:35.965Z,186.00
2022-11-23T14:33:47.007Z,190.00
2022-11-23T14:33:58.952Z,196.00
2022-11-23T14:34:09.981Z,192.00
2022-11-23T14:34:20.994Z,192.00
2022-11-23T14:34:32.380Z,190.00
2022-11-23T14:34:43.943Z,188.00
2022-11-23T14:34:54.955Z,184.00
2022-11-23T14:35:05.972Z,182.00
2022-11-23T14:35:16.984Z,182.00
2022-11-23T14:35:28.003Z,184.00
2022-11-23T14:35:40.013Z,183.00
2022-11-23T14:35:50.923Z,185.00
2022-11-23T14:36:01.943Z,184.00
2022-11-23T14:36:12.952Z,181.00
2022-11-23T14:36:23.967Z,176.00
2022-11-23T14:36:34.978Z,172.00
2022-11-23T14:36:45.988Z,167.00
2022-11-23T14:36:57.014Z,165.00
2022-11-23T14:37:08.976Z,163.00
2022-11-23T14:37:19.987Z,163.00
2022-11-23T14:37:31.020Z,164.00
2022-11-23T14:37:42.959Z,169.00
2022-11-23T14:37:53.983Z,177.00
2022-11-23T14:38:05.009Z,187.00
2022-11-23T14:38:15.924Z,192.00
2022-11-23T14:38:33.255Z,192.00
2022-11-23T14:38:38.966Z,180.00
2022-11-23T14:38:48.979Z,172.00
2022-11-23T14:39:00.001Z,167.00
2022-11-23T14:39:10.925Z,160.00
2022-11-23T14:39:21.959Z,157.00
2022-11-23T14:39:32.991Z,156.00
2022-11-23T14:39:44.016Z,156.00
2022-11-23T14:39:54.923Z,156.00
2022-11-23T14:40:05.931Z,160.00
2022-11-23T14:40:16.947Z,163.00
2022-11-23T14:40:27.961Z,164.00
2022-11-23T14:40:38.981Z,166.00
2022-11-23T14:40:50.005Z,168.00
2022-11-23T14:41:00.923Z,163.00
2022-11-23T14:41:11.951Z,155.00
2022-11-23T14:41:22.976Z,152.00
2022-11-23T14:41:33.994Z,150.00
2022-11-23T14:41:44.926Z,149.00
2022-11-23T14:41:55.938Z,147.00
2022-11-23T14:42:06.990Z,147.00
2022-11-23T14:42:18.008Z,147.00
2022-11-23T14:42:30.002Z,143.00
2022-11-23T14:42:41.940Z,143.00
2022-11-23T14:42:52.983Z,143.00
2022-11-23T14:43:03.998Z,149.00
2022-11-23T14:43:15.014Z,155.00
2022-11-23T14:43:26.045Z,146.00
2022-11-23T14:43:38.004Z,143.00
2022-11-23T14:43:49.012Z,142.00
2022-11-23T14:44:00.966Z,142.00
2022-11-23T14:44:11.995Z,140.00
2022-11-23T14:44:23.001Z,139.00
2022-11-23T14:44:38.321Z,139.00
2022-11-23T14:44:46.008Z,137.00
2022-11-23T14:44:57.941Z,138.00
2022-11-23T14:45:08.959Z,137.00
2022-11-23T14:45:20.975Z,137.00
2022-11-23T14:45:32.032Z,137.00
2022-11-23T14:45:44.032Z,135.00
2022-11-23T14:45:56.072Z,134.00
2022-11-23T14:46:07.100Z,133.00
2022-11-23T14:46:19.292Z,132.00
2022-11-23T14:46:30.942Z,132.00
2022-11-23T14:46:42.011Z,132.00
2022-11-23T14:46:52.937Z,132.00
2022-11-23T14:47:04.012Z,131.00
2022-11-23T14:47:15.067Z,130.00
2022-11-23T14:47:26.074Z,130.00
2022-11-23T14:47:38.020Z,128.00
2022-11-23T14:47:48.977Z,128.00
2022-11-23T14:48:00.001Z,128.00
2022-11-23T14:48:10.933Z,126.00
2022-11-23T14:48:21.944Z,124.00
2022-11-23T14:48:32.948Z,124.00
2022-11-23T14:48:43.963Z,122.00
2022-11-23T14:48:54.999Z,121.00
2022-11-23T14:49:05.926Z,120.00
2022-11-23T14:49:16.945Z,120.00
2022-11-23T14:49:27.953Z,119.00
2022-11-23T14:49:39.963Z,119.00
2022-11-23T14:49:51.979Z,119.00
2022-11-23T14:50:03.092Z,119.00
2022-11-23T14:50:14.939Z,119.00
2022-11-23T14:50:25.954Z,119.00
2022-11-23T14:50:36.968Z,119.00
2022-11-23T14:50:48.981Z,119.00
2022-11-23T14:50:59.992Z,119.00
2022-11-23T14:51:11.019Z,116.00
2022-11-23T14:51:22.963Z,115.00
2022-11-23T14:51:33.984Z,116.00
2022-11-23T14:51:44.993Z,115.00
2022-11-23T14:51:56.005Z,114.00
2022-11-23T14:52:07.932Z,113.00
2022-11-23T14:52:18.951Z,113.00
2022-11-23T14:52:29.980Z,113.00
2022-11-23T14:52:41.025Z,112.00
2022-11-23T14:52:52.945Z,112.00
2022-11-23T14:53:03.964Z,112.00
2022-11-23T14:53:14.986Z,112.00
2022-11-23T14:53:26.007Z,112.00
2022-11-23T14:53:40.575Z,112.00
2022-11-23T14:53:49.959Z,111.00
2022-11-23T14:53:59.976Z,111.00
2022-11-23T14:54:11.001Z,110.00
2022-11-23T14:54:21.998Z,109.00
2022-11-23T14:54:34.303Z,109.00
2022-11-23T14:54:44.923Z,109.00
2022-11-23T14:54:55.945Z,110.00
2022-11-23T14:55:06.969Z,107.00
2022-11-23T14:55:17.969Z,106.00
2022-11-23T14:55:28.983Z,105.00
2022-11-23T14:55:39.998Z,104.00
2022-11-23T14:55:51.014Z,104.00
2022-11-23T14:56:02.945Z,104.00
2022-11-23T14:56:13.968Z,103.00
2022-11-23T14:56:25.015Z,102.00
2022-11-23T14:56:36.938Z,102.00
2022-11-23T14:56:47.958Z,102.00
2022-11-23T14:56:58.972Z,101.00
2022-11-23T14:57:10.008Z,100.00
2022-11-23T14:57:21.017Z,100.00
2022-11-23T14:57:31.926Z,100.00
2022-11-23T14:57:42.937Z,100.00
2022-11-23T14:57:53.959Z,100.00
2022-11-23T14:58:04.960Z,100.00
2022-11-23T14:58:15.980Z,98.00
2022-11-23T14:58:27.941Z,98.00
2022-11-23T14:58:38.957Z,97.00
2022-11-23T14:58:49.969Z,98.00
2022-11-23T14:59:00.983Z,97.00
2022-11-23T14:59:12.000Z,96.00
2022-11-23T14:59:23.933Z,95.00
2022-11-23T14:59:34.956Z,94.00
2022-11-23T15:01:15.002Z,91.00
2022-11-23T15:01:26.935Z,91.00
2022-11-23T15:01:37.955Z,91.00
2022-11-23T15:01:49.006Z,88.00
2022-11-23T15:01:59.916Z,88.00
2022-11-23T15:02:10.916Z,87.00
2022-11-23T15:02:21.951Z,86.00
2022-11-23T15:02:32.970Z,85.00
2022-11-23T15:02:44.011Z,85.00
2022-11-23T15:02:55.972Z,84.00
2022-11-23T15:03:27.031Z,83.00
2022-11-23T15:03:49.297Z,83.00
2022-11-23T15:03:50.443Z,82.00
2022-11-23T15:03:53.049Z,83.00
2022-11-23T15:04:03.113Z,81.00
2022-11-23T15:04:15.070Z,79.00
2022-11-23T15:04:27.107Z,79.00
2022-11-23T15:04:38.766Z,78.00
2022-11-23T15:04:50.204Z,78.00
2022-11-23T15:05:02.080Z,77.00
2022-11-23T15:05:13.994Z,77.00
2022-11-23T15:05:24.995Z,76.00
2022-11-23T15:05:37.010Z,75.00
2022-11-23T15:05:47.957Z,74.00
2022-11-23T15:05:58.962Z,74.00
2022-11-23T15:06:09.987Z,74.00
2022-11-23T15:06:20.990Z,74.00
2022-11-23T15:06:32.002Z,74.00
2022-11-23T15:06:45.841Z,74.00
2022-11-23T15:06:55.015Z,71.00
2022-11-23T15:07:07.013Z,70.00
2022-11-23T15:07:18.037Z,71.00
2022-11-23T15:07:29.996Z,70.00
2022-11-23T15:07:41.968Z,69.00
2022-11-23T15:07:53.092Z,68.00
2022-11-23T15:08:04.931Z,68.00
2022-11-23T15:08:15.950Z,68.00
2022-11-23T15:08:26.969Z,67.00
2022-11-23T15:08:37.975Z,67.00
2022-11-23T15:08:49.002Z,66.00
2022-11-23T15:08:59.929Z,66.00
2022-11-23T15:09:10.942Z,65.00
2022-11-23T15:09:21.985Z,64.00
2022-11-23T15:09:32.997Z,64.00
2022-11-23T15:09:44.008Z,65.00
2022-11-23T15:09:55.941Z,65.00
2022-11-23T15:10:06.993Z,65.00
2022-11-23T15:10:18.005Z,65.00
2022-11-23T15:10:29.933Z,62.00
2022-11-23T15:10:40.972Z,61.00
2022-11-23T15:10:51.983Z,61.00
2022-11-23T15:11:02.993Z,61.00
2022-11-23T15:11:14.009Z,61.00
2022-11-23T15:11:24.918Z,60.00
2022-11-23T15:11:35.921Z,60.00
2022-11-23T15:11:46.937Z,59.00
2022-11-23T15:11:57.972Z,59.00
2022-11-23T15:12:08.992Z,58.00
2022-11-23T15:12:20.004Z,58.00
2022-11-23T15:12:31.003Z,58.00
2022-11-23T15:12:42.925Z,57.00
2022-11-23T15:12:53.946Z,57.00
2022-11-23T15:13:04.958Z,56.00
2022-11-23T15:13:15.985Z,56.00
2022-11-23T15:13:27.933Z,56.00
2022-11-23T15:13:38.989Z,56.00
2022-11-23T15:13:50.013Z,55.00
2022-11-23T15:14:01.962Z,55.00
2022-11-23T15:14:12.993Z,55.00
2022-11-23T15:14:24.012Z,55.00
2022-11-23T15:14:36.347Z,55.00
2022-11-23T15:14:47.920Z,55.00
2022-11-23T15:14:58.921Z,55.00
2022-11-23T15:15:09.928Z,53.00
2022-11-23T15:15:20.949Z,52.00
2022-11-23T15:15:31.961Z,52.00
2022-11-23T15:15:43.650Z,52.00
2022-11-23T15:15:54.673Z,51.00
2022-11-23T15:16:05.602Z,51.00
2022-11-23T15:16:16.764Z,50.00
2022-11-23T15:16:27.709Z,50.00
2022-11-23T15:16:39.796Z,49.00
2022-11-23T15:16:51.810Z,50.00
2022-11-23T15:17:03.741Z,49.00
2022-11-23T15:17:14.668Z,49.00
2022-11-23T15:17:25.681Z,49.00
2022-11-23T15:17:37.642Z,48.00
2022-11-23T15:17:48.636Z,48.00
2022-11-23T15:17:59.592Z,47.00
2022-11-23T15:18:10.612Z,47.00
2022-11-23T15:18:21.674Z,47.00
2022-11-23T15:18:33.610Z,47.00
2022-11-23T15:18:44.631Z,47.00
2022-11-23T15:18:55.651Z,46.00
2022-11-23T15:19:06.658Z,46.00
2022-11-23T15:19:17.665Z,46.00
2022-11-23T15:19:28.678Z,46.00
2022-11-23T15:19:40.599Z,46.00
2022-11-23T15:19:51.655Z,46.00
2022-11-23T15:20:02.658Z,46.00
2022-11-23T15:20:14.669Z,46.00
2022-11-23T15:20:26.626Z,43.00
2022-11-23T15:20:37.655Z,43.00
2022-11-23T15:20:48.668Z,43.00
2022-11-23T15:20:59.676Z,42.00
2022-11-23T15:21:10.689Z,42.00
2022-11-23T15:21:26.837Z,42.00
2022-11-23T15:21:33.635Z,42.00
2022-11-23T15:21:44.651Z,42.00
2022-11-23T15:21:55.720Z,42.00
2022-11-23T15:22:07.637Z,42.00
2022-11-23T15:22:18.665Z,41.00
2022-11-23T15:22:29.680Z,41.00
2022-11-23T15:22:40.586Z,41.00
2022-11-23T15:22:51.602Z,41.00
2022-11-23T15:23:02.635Z,41.00
2022-11-23T15:23:13.666Z,41.00
2022-11-23T15:23:24.681Z,40.00
2022-11-23T15:23:36.604Z,40.00
2022-11-23T15:23:47.629Z,40.00
2022-11-23T15:23:58.649Z,39.00
2022-11-23T15:24:09.672Z,39.00
2022-11-23T15:24:20.583Z,39.00
2022-11-23T15:24:32.068Z,39.00
2022-11-23T15:24:42.651Z,38.00
2022-11-23T15:24:53.671Z,38.00
2022-11-23T15:25:05.590Z,38.00
2022-11-23T15:25:16.614Z,37.00
2022-11-23T15:25:27.622Z,37.00
2022-11-23T15:25:38.643Z,37.00
2022-11-23T15:25:49.652Z,37.00
2022-11-23T15:26:00.658Z,36.00
2022-11-23T15:26:12.282Z,36.00
2022-11-23T15:26:46.311Z,36.00
2022-11-23T15:26:47.972Z,36.00
2022-11-23T15:26:49.172Z,36.00
2022-11-23T15:26:56.627Z,36.00
2022-11-23T15:27:12.374Z,36.00
2022-11-23T15:27:19.665Z,36.00
2022-11-23T15:27:30.669Z,36.00
2022-11-23T15:27:41.585Z,36.00
2022-11-23T15:27:52.612Z,37.00
2022-11-23T15:28:03.624Z,37.00
2022-11-23T15:28:14.632Z,37.00
2022-11-23T15:28:25.642Z,34.00
2022-11-23T15:28:36.655Z,34.00
2022-11-23T15:28:47.669Z,34.00
2022-11-23T15:28:58.577Z,34.00
2022-11-23T15:29:09.609Z,34.00
2022-11-23T15:29:20.622Z,33.00
2022-11-23T15:29:32.033Z,33.00
2022-11-23T15:29:42.675Z,33.00
2022-11-23T15:29:54.605Z,32.00
2022-11-23T15:30:05.625Z,33.00
2022-11-23T15:30:16.647Z,33.00
2022-11-23T15:30:27.653Z,33.00
2022-11-23T15:30:38.671Z,33.00
2022-11-23T15:30:56.687Z,33.00
2022-11-23T15:31:03.627Z,32.00
2022-11-23T15:31:17.572Z,32.00
2022-11-23T15:31:25.729Z,32.00
2022-11-23T15:31:36.654Z,32.00
2022-11-23T15:32:06.789Z,32.00
2022-11-23T15:32:28.675Z,32.00
2022-11-23T15:32:30.723Z,31.00
2022-11-23T15:32:34.312Z,31.00
2022-11-23T15:32:43.681Z,31.00
2022-11-23T15:32:55.639Z,31.00
2022-11-23T15:33:06.680Z,31.00
2022-11-23T15:33:18.630Z,30.00
2022-11-23T15:33:29.646Z,30.00
2022-11-23T15:33:40.666Z,30.00
2022-11-23T15:33:52.673Z,30.00
2022-11-23T15:34:04.612Z,30.00
2022-11-23T15:34:15.633Z,30.00
2022-11-23T15:34:27.660Z,30.00
2022-11-23T15:34:38.676Z,29.00
2022-11-23T15:34:50.606Z,29.00
2022-11-23T15:35:01.632Z,29.00
2022-11-23T15:35:12.649Z,29.00
2022-11-23T15:35:23.666Z,29.00
2022-11-23T15:35:34.685Z,29.00
2022-11-23T15:35:46.607Z,29.00
2022-11-23T15:35:57.607Z,29.00
2022-11-23T15:36:08.654Z,29.00
2022-11-23T15:36:19.669Z,29.00
2022-11-23T15:36:31.675Z,29.00
2022-11-23T15:36:43.601Z,29.00
2022-11-23T15:36:54.616Z,29.00
2022-11-23T15:37:05.633Z,29.00
2022-11-23T15:37:16.640Z,29.00
2022-11-23T15:37:27.660Z,28.00
2022-11-23T15:37:38.591Z,28.00
2022-11-23T15:37:49.599Z,28.00
2022-11-23T15:38:00.622Z,28.00
2022-11-23T15:38:11.630Z,28.00
2022-11-23T15:38:24.092Z,28.00
2022-11-23T15:38:34.601Z,28.00
2022-11-23T15:38:45.614Z,28.00
2022-11-23T15:38:56.620Z,27.00
2022-11-23T15:39:07.651Z,27.00
2022-11-23T15:39:18.671Z,27.00
2022-11-23T15:39:31.133Z,27.00
2022-11-23T15:39:41.675Z,27.00
2022-11-23T15:39:52.671Z,27.00
2022-11-23T15:40:03.681Z,27.00
2022-11-23T15:40:15.602Z,27.00
2022-11-23T15:40:26.614Z,27.00
2022-11-23T15:40:37.657Z,27.00
2022-11-23T15:40:48.655Z,27.00
2022-11-23T15:41:00.663Z,27.00
2022-11-23T15:41:11.674Z,27.00
2022-11-23T15:41:22.596Z,27.00
2022-11-23T15:41:33.624Z,27.00
2022-11-23T15:41:44.639Z,27.00
2022-11-23T15:41:55.650Z,27.00
2022-11-23T15:42:06.578Z,27.00
2022-11-23T15:42:17.595Z,27.00
2022-11-23T15:42:28.610Z,27.00
2022-11-23T15:42:39.626Z,27.00
2022-11-23T15:42:50.636Z,27.00
2022-11-23T15:43:01.654Z,27.00
2022-11-23T15:43:12.670Z,27.00
2022-11-23T15:43:23.681Z,27.00
2022-11-23T15:43:34.586Z,27.00
2022-11-23T15:43:45.632Z,27.00
2022-11-23T15:43:56.646Z,27.00
2022-11-23T15:44:07.640Z,27.00
2022-11-23T15:44:18.661Z,27.00
2022-11-23T15:44:29.679Z,27.00
2022-11-23T15:44:44.867Z,27.00
2022-11-23T15:44:53.906Z,27.00
2022-11-23T15:45:04.629Z,27.00
2022-11-23T15:45:15.674Z,27.00
2022-11-23T15:45:26.679Z,27.00
2022-11-23T15:45:38.741Z,27.00
2022-11-23T15:45:49.747Z,27.00
2022-11-23T15:46:00.743Z,27.00
2022-11-23T15:46:12.717Z,28.00
2022-11-23T15:46:23.748Z,28.00
2022-11-23T15:46:35.744Z,28.00
2022-11-23T15:46:47.591Z,28.00
2022-11-23T15:46:58.621Z,28.00
2022-11-23T15:47:09.634Z,28.00
2022-11-23T15:47:20.674Z,25.00
2022-11-23T15:47:32.603Z,25.00
2022-11-23T15:47:43.607Z,25.00
2022-11-23T15:47:54.633Z,28.00
2022-11-23T15:48:05.641Z,28.00
2022-11-23T15:48:16.649Z,25.00
2022-11-23T15:48:27.659Z,25.00
2022-11-23T15:48:38.667Z,25.00
2022-11-23T15:48:49.568Z,25.00
2022-11-23T15:49:00.583Z,25.00
2022-11-23T15:49:11.603Z,25.00
2022-11-23T15:49:22.624Z,25.00
2022-11-23T15:49:33.917Z,25.00
2022-11-23T15:49:45.616Z,25.00
2022-11-23T15:49:56.639Z,25.00
2022-11-23T15:50:07.648Z,25.00
2022-11-23T15:50:18.654Z,25.00
2022-11-23T15:50:34.056Z,25.00
2022-11-23T15:50:42.634Z,25.00
2022-11-23T15:50:53.574Z,25.00
2022-11-23T15:51:04.583Z,25.00
2022-11-23T15:51:15.601Z,25.00
2022-11-23T15:51:26.631Z,25.00
2022-11-23T15:51:38.637Z,25.00
2022-11-23T15:51:49.655Z,25.00
2022-11-23T15:52:01.663Z,25.00
2022-11-23T15:52:12.681Z,25.00
2022-11-23T15:52:24.616Z,25.00
2022-11-23T15:52:36.624Z,25.00
2022-11-23T15:52:47.640Z,25.00
2022-11-23T15:52:58.659Z,25.00
2022-11-23T15:53:10.595Z,25.00
2022-11-23T15:53:21.616Z,25.00
2022-11-23T15:53:32.633Z,25.00
2022-11-23T15:53:43.642Z,25.00
2022-11-23T15:53:54.659Z,25.00
2022-11-23T15:54:05.675Z,25.00
2022-11-23T15:54:16.587Z,25.00
2022-11-23T15:54:27.587Z,25.00
2022-11-23T15:54:38.618Z,25.00
2022-11-23T15:54:49.640Z,25.00
2022-11-23T15:55:03.266Z,25.00
2022-11-23T15:55:12.601Z,24.00
2022-11-23T15:55:22.621Z,24.00
2022-11-23T15:55:33.627Z,24.00
2022-11-23T15:55:44.645Z,24.00
2022-11-23T15:55:55.658Z,25.00
2022-11-23T15:56:06.669Z,25.00
2022-11-23T15:56:17.695Z,25.00
2022-11-23T15:56:29.607Z,25.00
2022-11-23T15:56:40.617Z,24.00
2022-11-23T15:56:51.634Z,25.00
2022-11-23T15:57:02.648Z,24.00
2022-11-23T15:57:13.575Z,24.00
2022-11-23T15:57:24.591Z,24.00
2022-11-23T15:57:35.597Z,24.00
2022-11-23T15:57:46.644Z,24.00
2022-11-23T15:57:57.656Z,24.00
2022-11-23T15:58:09.611Z,24.00
2022-11-23T15:58:20.621Z,24.00
2022-11-23T15:58:31.660Z,24.00
2022-11-23T15:58:42.675Z,24.00
2022-11-23T15:58:53.592Z,24.00
2022-11-23T15:59:04.604Z,24.00
2022-11-23T15:59:15.606Z,24.00
2022-11-23T15:59:26.621Z,24.00
2022-11-23T15:59:37.651Z,24.00
2022-11-23T15:59:48.653Z,24.00
2022-11-23T15:59:59.715Z,24.00
2022-11-23T16:00:11.617Z,24.00
2022-11-23T16:00:22.628Z,24.00
2022-11-23T16:00:33.639Z,24.00
2022-11-23T16:00:44.649Z,24.00
2022-11-23T16:00:55.738Z,24.00
2022-11-23T16:01:07.779Z,24.00
2022-11-23T16:01:18.630Z,24.00
2022-11-23T16:01:29.694Z,24.00
2022-11-23T16:01:40.756Z,24.00
2022-11-23T16:01:51.754Z,24.00
2022-11-23T16:02:03.723Z,24.00
2022-11-23T16:02:14.645Z,24.00
2022-11-23T16:02:26.664Z,24.00
2022-11-23T16:02:37.659Z,24.00
2022-11-23T16:02:48.758Z,24.00
2022-11-23T16:03:00.736Z,24.00
2022-11-23T16:03:12.673Z,24.00
2022-11-23T16:03:23.591Z,24.00
2022-11-23T16:03:34.672Z,24.00
2022-11-23T16:03:46.618Z,24.00
2022-11-23T16:03:57.640Z,24.00
2022-11-23T16:04:08.643Z,24.00
2022-11-23T16:04:19.657Z,24.00
2022-11-23T16:04:31.328Z,24.00
2022-11-23T16:04:42.641Z,24.00
2022-11-23T16:04:53.660Z,24.00
2022-11-23T16:05:05.588Z,24.00
2022-11-23T16:05:16.665Z,24.00
2022-11-23T16:05:27.679Z,28.00
2022-11-23T16:05:39.604Z,27.00
2022-11-23T16:05:51.772Z,25.00
2022-11-23T16:06:01.636Z,25.00
2022-11-23T16:06:13.759Z,25.00
2022-11-23T16:06:24.592Z,25.00
2022-11-23T16:06:35.598Z,25.00
2022-11-23T16:06:46.613Z,25.00
2022-11-23T16:06:57.638Z,28.00
2022-11-23T16:07:08.687Z,24.00
2022-11-23T16:07:20.701Z,25.00
2022-11-23T16:07:31.709Z,25.00
2022-11-23T16:07:43.752Z,25.00
2022-11-23T16:07:55.676Z,25.00
2022-11-23T16:08:07.607Z,25.00
2022-11-23T16:08:18.609Z,25.00
2022-11-23T16:08:29.639Z,25.00
2022-11-23T16:08:41.606Z,25.00
2022-11-23T16:08:52.613Z,28.00
2022-11-23T16:09:07.403Z,28.00
2022-11-23T16:09:49.099Z,28.00
2022-11-23T16:09:49.729Z,28.00
2022-11-23T16:09:51.623Z,28.00
2022-11-23T16:09:54.295Z,28.00
2022-11-23T16:10:00.294Z,28.00
2022-11-23T16:10:11.622Z,25.00
2022-11-23T16:10:22.628Z,28.00
2022-11-23T16:10:33.638Z,25.00
2022-11-23T16:10:44.665Z,28.00
2022-11-23T16:10:55.669Z,28.00
2022-11-23T16:11:07.601Z,25.00
2022-11-23T16:11:18.615Z,25.00
2022-11-23T16:11:29.619Z,25.00
2022-11-23T16:11:40.638Z,25.00
2022-11-23T16:11:51.654Z,25.00
2022-11-23T16:12:02.668Z,25.00
2022-11-23T16:12:13.681Z,25.00
2022-11-23T16:12:25.625Z,25.00
2022-11-23T16:12:36.634Z,28.00
2022-11-23T16:12:47.656Z,25.00
2022-11-23T16:12:58.680Z,24.00
2022-11-23T16:13:10.594Z,24.00
2022-11-23T16:13:21.637Z,24.00
2022-11-23T16:13:32.649Z,24.00
2022-11-23T16:13:43.656Z,24.00
2022-11-23T16:13:55.609Z,24.00
2022-11-23T16:14:06.621Z,24.00
2022-11-23T16:14:17.665Z,24.00
2022-11-23T16:14:32.048Z,24.00
2022-11-23T16:14:40.617Z,24.00
2022-11-23T16:14:52.623Z,24.00
2022-11-23T16:15:04.633Z,24.00
2022-11-23T16:15:15.649Z,24.00
2022-11-23T16:15:26.657Z,24.00
2022-11-23T16:15:38.833Z,24.00
2022-11-23T16:15:49.586Z,24.00
2022-11-23T16:16:00.604Z,24.00
2022-11-23T16:16:11.619Z,24.00
2022-11-23T16:16:22.683Z,24.00
2022-11-23T16:16:34.682Z,24.00
2022-11-23T16:16:46.719Z,24.00
2022-11-23T16:16:58.633Z,24.00
2022-11-23T16:17:09.711Z,24.00
2022-11-23T16:17:21.721Z,24.00
2022-11-23T16:17:32.581Z,24.00
2022-11-23T16:17:43.589Z,24.00
2022-11-23T16:17:54.606Z,24.00
2022-11-23T16:18:05.647Z,24.00
2022-11-23T16:18:16.652Z,24.00
2022-11-23T16:18:27.672Z,24.00
2022-11-23T16:18:38.585Z,24.00
2022-11-23T16:18:49.596Z,24.00
2022-11-23T16:19:00.624Z,24.00
2022-11-23T16:19:11.683Z,24.00
2022-11-23T16:19:23.590Z,24.00
2022-11-23T16:19:35.035Z,24.00
2022-11-23T16:19:45.588Z,24.00
2022-11-23T16:19:56.603Z,24.00
2022-11-23T16:20:08.612Z,24.00
2022-11-23T16:20:19.633Z,24.00
2022-11-23T16:20:30.660Z,24.00
2022-11-23T16:20:41.668Z,24.00
2022-11-23T16:20:52.681Z,24.00
2022-11-23T16:21:04.601Z,24.00
2022-11-23T16:21:15.618Z,24.00
2022-11-23T16:21:26.624Z,24.00
2022-11-23T16:21:37.621Z,24.00
2022-11-23T16:21:48.589Z,24.00
2022-11-23T16:22:02.581Z,24.00
2022-11-23T16:22:10.649Z,24.00
2022-11-23T16:22:21.657Z,24.00
2022-11-23T16:22:32.669Z,24.00
2022-11-23T16:22:43.585Z,24.00
2022-11-23T16:22:54.597Z,24.00
2022-11-23T16:23:05.610Z,24.00
2022-11-23T16:23:16.637Z,24.00
2022-11-23T16:23:27.648Z,24.00
2022-11-23T16:23:38.654Z,24.00
2022-11-23T16:23:49.582Z,24.00
2022-11-23T16:24:00.602Z,24.00
2022-11-23T16:24:11.617Z,24.00
2022-11-23T16:24:22.628Z,24.00
2022-11-23T16:24:33.970Z,24.00
2022-11-23T16:24:45.628Z,24.00
2022-11-23T16:24:56.637Z,24.00
2022-11-23T16:25:07.664Z,24.00
2022-11-23T16:25:18.677Z,24.00
2022-11-23T16:25:29.600Z,24.00
2022-11-23T16:25:40.609Z,24.00
2022-11-23T16:25:51.615Z,24.00
2022-11-23T16:26:03.623Z,24.00
2022-11-23T16:26:14.685Z,24.00
2022-11-23T16:26:26.609Z,24.00
2022-11-23T16:26:37.638Z,24.00
2022-11-23T16:26:48.642Z,24.00
2022-11-23T16:26:59.676Z,24.00
2022-11-23T16:27:11.603Z,24.00
2022-11-23T16:27:22.622Z,24.00
2022-11-23T16:27:33.634Z,24.00
2022-11-23T16:27:44.647Z,24.00
2022-11-23T16:27:55.653Z,24.00
2022-11-23T16:28:06.669Z,24.00
2022-11-23T16:28:17.580Z,24.00
2022-11-23T16:28:28.597Z,24.00
2022-11-23T16:28:39.605Z,24.00
2022-11-23T16:28:50.608Z,24.00
2022-11-23T16:29:02.620Z,24.00
2022-11-23T16:29:13.631Z,24.00
2022-11-23T16:29:24.686Z,24.00
2022-11-23T16:29:36.605Z,24.00
2022-11-23T16:29:47.641Z,24.00
2022-11-23T16:30:02.925Z,24.00
2022-11-23T16:30:09.657Z,24.00
2022-11-23T16:30:21.664Z,24.00
2022-11-23T16:30:32.644Z,24.00
2022-11-23T16:30:43.740Z,24.00
2022-11-23T16:30:54.640Z,24.00
2022-11-23T16:31:05.723Z,24.00
2022-11-23T16:31:17.708Z,24.00
2022-11-23T16:31:29.621Z,24.00
2022-11-23T16:31:40.625Z,24.00
2022-11-23T16:31:51.656Z,24.00
2022-11-23T16:32:02.676Z,24.00
2022-11-23T16:32:13.585Z,24.00
2022-11-23T16:32:24.598Z,24.00
2022-11-23T16:32:35.632Z,24.00
2022-11-23T16:32:46.643Z,24.00
2022-11-23T16:32:58.601Z,24.00
2022-11-23T16:33:09.625Z,24.00
2022-11-23T16:33:21.632Z,24.00
2022-11-23T16:33:32.646Z,24.00
2022-11-23T16:33:43.662Z,24.00
2022-11-23T16:33:55.610Z,24.00
2022-11-23T16:34:06.626Z,24.00
2022-11-23T16:34:17.646Z,24.00
2022-11-23T16:34:28.662Z,24.00
2022-11-23T16:34:40.596Z,24.00
2022-11-23T16:34:51.620Z,24.00
2022-11-23T16:35:02.651Z,24.00
2022-11-23T16:35:13.671Z,24.00
2022-11-23T16:35:25.597Z,24.00
2022-11-23T16:35:36.632Z,24.00
2022-11-23T16:35:47.657Z,24.00
2022-11-23T16:35:58.675Z,24.00
2022-11-23T16:36:09.584Z,24.00
2022-11-23T16:36:21.594Z,24.00
2022-11-23T16:36:32.607Z,24.00
2022-11-23T16:36:43.640Z,24.00
2022-11-23T16:36:54.643Z,24.00
2022-11-23T16:37:05.656Z,24.00
2022-11-23T16:37:17.588Z,24.00
2022-11-23T16:37:28.607Z,24.00
2022-11-23T16:37:39.644Z,24.00
2022-11-23T16:37:50.673Z,24.00